createdAt,value
2019-05-14T00:01:42.318Z,5.80
2019-05-14T00:04:11.587Z,5.74
2019-05-14T00:06:41.800Z,5.67
2019-05-14T00:09:12.161Z,5.61
2019-05-14T00:11:42.196Z,5.58
2019-05-14T00:14:11.745Z,5.57
2019-05-14T00:16:42.435Z,5.53
2019-05-14T00:19:12.094Z,5.49
2019-05-14T00:21:42.314Z,5.45
2019-05-14T00:24:11.568Z,5.43
2019-05-14T00:26:42.677Z,5.40
2019-05-14T00:29:11.610Z,5.41
2019-05-14T00:31:42.519Z,5.40
2019-05-14T00:34:11.436Z,5.38
2019-05-14T00:36:41.620Z,5.37
2019-05-14T00:39:11.349Z,5.39
2019-05-14T00:41:42.026Z,5.40
2019-05-14T00:44:13.322Z,5.42
2019-05-14T00:46:42.326Z,5.42
2019-05-14T00:49:11.876Z,5.42
2019-05-14T00:51:41.467Z,5.42
2019-05-14T00:54:11.925Z,5.40
2019-05-14T00:56:41.697Z,5.38
2019-05-14T00:59:11.433Z,5.34
2019-05-14T01:01:42.465Z,5.32
2019-05-14T01:04:11.799Z,5.27
2019-05-14T01:06:42.040Z,5.21
2019-05-14T01:09:11.567Z,5.16
2019-05-14T01:11:42.011Z,5.17
2019-05-14T01:14:12.202Z,5.10
2019-05-14T01:16:42.403Z,5.09
2019-05-14T01:19:12.566Z,5.02
2019-05-14T01:21:41.876Z,4.97
2019-05-14T01:24:12.581Z,4.95
2019-05-14T01:26:41.779Z,4.91
2019-05-14T01:29:11.920Z,4.89
2019-05-14T01:31:41.766Z,4.88
2019-05-14T01:37:52.369Z,4.99
2019-05-14T01:40:21.926Z,5.04
2019-05-14T01:42:52.242Z,5.06
2019-05-14T01:45:27.241Z,5.02
2019-05-14T01:47:52.209Z,5.00
2019-05-14T01:50:21.638Z,4.86
2019-05-14T01:52:52.055Z,4.80
2019-05-14T01:55:21.933Z,4.72
2019-05-14T01:57:51.747Z,4.75
2019-05-14T02:00:22.032Z,4.76
2019-05-14T02:02:52.405Z,4.76
2019-05-14T02:05:21.879Z,4.86
2019-05-14T02:07:52.627Z,4.94
2019-05-14T02:10:22.283Z,4.99
2019-05-14T02:12:51.703Z,5.02
2019-05-14T02:15:21.384Z,5.05
2019-05-14T02:17:51.898Z,5.03
2019-05-14T02:20:21.692Z,5.03
2019-05-14T02:22:52.429Z,5.01
2019-05-14T02:25:21.748Z,4.96
2019-05-14T02:27:52.015Z,4.89
2019-05-14T02:30:31.514Z,4.84
2019-05-14T02:32:51.934Z,4.76
2019-05-14T02:35:21.009Z,4.69
2019-05-14T02:37:50.618Z,4.69
2019-05-14T02:40:20.516Z,4.71
2019-05-14T02:42:50.009Z,4.79
2019-05-14T02:45:20.061Z,4.79
2019-05-14T02:47:50.283Z,4.81
2019-05-14T02:50:20.191Z,4.83
2019-05-14T02:52:49.945Z,4.81
2019-05-14T02:55:19.531Z,4.79
2019-05-14T02:57:50.034Z,4.75
2019-05-14T03:00:19.598Z,4.74
2019-05-14T03:02:49.470Z,4.77
2019-05-14T03:05:19.217Z,4.78
2019-05-14T03:07:50.005Z,4.83
2019-05-14T03:10:19.616Z,4.90
2019-05-14T03:12:50.121Z,4.96
2019-05-14T03:15:20.236Z,5.03
2019-05-14T03:17:49.726Z,5.03
2019-05-14T03:20:19.570Z,5.05
2019-05-14T03:23:02.711Z,5.02
2019-05-14T03:25:20.073Z,5.02
2019-05-14T03:27:49.858Z,5.08
2019-05-14T03:30:23.061Z,5.09
2019-05-14T03:32:52.724Z,5.18
2019-05-14T03:35:23.307Z,5.14
2019-05-14T03:37:51.595Z,5.21
2019-05-14T03:40:20.654Z,5.26
2019-05-14T03:42:50.036Z,5.33
2019-05-14T03:45:19.643Z,5.33
2019-05-14T03:47:50.398Z,5.37
2019-05-14T03:50:19.521Z,5.37
2019-05-14T03:52:49.873Z,5.41
2019-05-14T03:55:20.138Z,5.48
2019-05-14T03:57:50.156Z,5.57
2019-05-14T04:00:22.965Z,5.57
2019-05-14T04:02:52.421Z,5.61
2019-05-14T04:05:22.587Z,5.76
2019-05-14T04:07:52.740Z,5.89
2019-05-14T04:10:22.202Z,6.02
2019-05-14T04:12:52.836Z,6.12
2019-05-14T04:15:25.652Z,6.24
2019-05-14T04:17:55.460Z,6.44
2019-05-14T04:20:25.921Z,6.52
2019-05-14T04:23:00.020Z,7.60
2019-05-14T04:25:30.733Z,9.36
2019-05-14T04:28:01.264Z,10.94
2019-05-14T04:30:33.555Z,11.68
2019-05-14T04:33:04.030Z,12.41
2019-05-14T04:35:33.170Z,12.69
2019-05-14T04:38:02.220Z,13.46
2019-05-14T04:40:31.236Z,13.90
2019-05-14T04:43:00.255Z,14.51
2019-05-14T04:45:29.871Z,14.65
2019-05-14T04:48:00.085Z,14.27
2019-05-14T04:50:29.785Z,12.98
2019-05-14T04:52:59.923Z,13.86
2019-05-14T04:55:29.810Z,14.56
2019-05-14T04:57:59.280Z,15.96
2019-05-14T05:00:30.572Z,16.43
2019-05-14T05:03:00.167Z,16.65
2019-05-14T05:05:30.036Z,16.81
2019-05-14T05:07:59.837Z,17.27
2019-05-14T05:10:29.789Z,16.66
2019-05-14T05:12:59.689Z,16.40
2019-05-14T05:15:29.119Z,16.33
2019-05-14T05:17:58.896Z,16.51
2019-05-14T05:20:29.231Z,16.50
2019-05-14T05:22:59.126Z,16.54
2019-05-14T05:25:29.252Z,17.54
2019-05-14T05:27:59.814Z,17.88
2019-05-14T05:30:29.525Z,18.37
2019-05-14T05:32:59.655Z,18.27
2019-05-14T05:35:29.223Z,18.92
2019-05-14T05:37:58.466Z,19.43
2019-05-14T05:40:28.772Z,19.99
2019-05-14T05:42:58.286Z,20.09
2019-05-14T05:45:29.041Z,19.17
2019-05-14T05:48:01.483Z,19.28
2019-05-14T05:50:29.040Z,19.46
2019-05-14T05:52:58.662Z,19.42
2019-05-14T05:55:28.790Z,19.90
2019-05-14T05:57:58.804Z,18.28
2019-05-14T06:00:39.504Z,17.26
2019-05-14T06:03:10.801Z,16.42
2019-05-14T06:05:38.848Z,16.33
2019-05-14T06:08:08.739Z,16.45
2019-05-14T06:10:40.002Z,16.31
2019-05-14T06:13:08.954Z,16.86
2019-05-14T06:15:45.578Z,16.20
2019-05-14T06:18:15.268Z,16.24
2019-05-14T06:20:40.197Z,15.72
2019-05-14T06:23:09.244Z,15.67
2019-05-14T06:25:40.027Z,15.46
2019-05-14T06:28:09.287Z,15.90
2019-05-14T06:30:39.708Z,17.29
2019-05-14T06:33:09.353Z,17.51
2019-05-14T06:35:39.679Z,17.93
2019-05-14T06:38:09.043Z,18.53
2019-05-14T06:40:39.536Z,19.32
2019-05-14T06:43:09.247Z,20.17
2019-05-14T06:45:39.135Z,20.56
2019-05-14T06:48:08.799Z,18.87
2019-05-14T06:50:39.163Z,19.48
2019-05-14T06:53:08.571Z,20.39
2019-05-14T06:55:39.226Z,21.19
2019-05-14T06:58:09.172Z,21.11
2019-05-14T07:00:39.418Z,20.96
2019-05-14T07:03:09.019Z,20.80
2019-05-14T07:05:38.989Z,21.21
2019-05-14T07:08:09.112Z,21.74
2019-05-14T07:10:39.501Z,20.71
2019-05-14T07:13:08.800Z,20.27
2019-05-14T07:15:38.597Z,20.30
2019-05-14T07:18:08.622Z,19.65
2019-05-14T07:20:39.156Z,19.99
2019-05-14T07:23:08.578Z,20.67
2019-05-14T07:25:39.343Z,20.69
2019-05-14T07:28:08.910Z,21.21
2019-05-14T07:30:39.590Z,21.63
2019-05-14T07:33:09.438Z,21.32
2019-05-14T07:35:38.728Z,21.75
2019-05-14T07:38:08.956Z,21.22
2019-05-14T07:40:39.066Z,21.30
2019-05-14T07:43:09.027Z,21.06
2019-05-14T07:45:38.650Z,19.75
2019-05-14T07:48:09.177Z,18.55
2019-05-14T07:50:39.681Z,18.56
2019-05-14T07:53:09.171Z,18.11
2019-05-14T07:55:38.601Z,17.46
2019-05-14T07:58:08.342Z,17.45
2019-05-14T08:00:39.982Z,16.89
2019-05-14T08:03:08.400Z,16.74
2019-05-14T08:05:39.035Z,16.59
2019-05-14T08:08:08.152Z,15.98
2019-05-14T08:10:39.200Z,16.62
2019-05-14T08:13:08.483Z,16.96
2019-05-14T08:15:38.698Z,17.10
2019-05-14T08:18:08.195Z,17.68
2019-05-14T08:20:38.100Z,17.82
2019-05-14T08:23:08.948Z,18.23
2019-05-14T08:25:39.046Z,18.46
2019-05-14T08:28:08.277Z,17.85
2019-05-14T08:30:38.908Z,17.36
2019-05-14T08:33:08.928Z,17.30
2019-05-14T08:35:39.535Z,17.10
2019-05-14T08:38:12.023Z,17.33
2019-05-14T08:40:40.118Z,17.80
2019-05-14T08:43:09.150Z,18.08
2019-05-14T08:45:38.908Z,18.43
2019-05-14T08:48:09.220Z,18.16
2019-05-14T08:50:38.944Z,17.79
2019-05-14T08:53:09.082Z,18.26
2019-05-14T08:55:38.388Z,18.20
2019-05-14T08:58:13.360Z,18.15
2019-05-14T09:00:38.776Z,18.13
2019-05-14T09:03:08.560Z,18.38
2019-05-14T09:05:38.654Z,18.51
2019-05-14T09:08:08.891Z,17.51
2019-05-14T09:10:40.326Z,17.73
2019-05-14T09:13:09.121Z,17.98
2019-05-14T09:15:38.532Z,18.53
2019-05-14T09:18:11.806Z,17.88
2019-05-14T09:20:38.817Z,17.83
2019-05-14T09:23:09.119Z,18.31
2019-05-14T09:25:47.639Z,18.71
2019-05-14T09:28:09.179Z,18.82
2019-05-14T09:30:38.312Z,18.93
2019-05-14T09:33:08.606Z,18.38
2019-05-14T09:35:38.611Z,18.24
2019-05-14T09:38:08.731Z,18.31
2019-05-14T09:40:39.644Z,17.86
2019-05-14T09:43:09.265Z,17.72
2019-05-14T09:45:38.831Z,17.72
2019-05-14T09:48:08.846Z,17.60
2019-05-14T09:50:38.501Z,17.56
2019-05-14T09:53:09.712Z,17.98
2019-05-14T09:55:38.989Z,18.07
2019-05-14T09:58:08.301Z,18.05
2019-05-14T10:00:38.985Z,18.22
2019-05-14T10:03:09.675Z,18.64
2019-05-14T10:05:38.889Z,17.92
2019-05-14T10:08:08.956Z,18.21
2019-05-14T10:10:39.892Z,18.72
2019-05-14T10:13:09.887Z,19.18
2019-05-14T10:15:39.212Z,19.46
2019-05-14T10:18:11.892Z,19.28
2019-05-14T10:20:45.510Z,19.77
2019-05-14T10:23:09.835Z,19.40
2019-05-14T10:25:42.212Z,19.56
2019-05-14T10:28:09.703Z,20.09
2019-05-14T10:30:38.837Z,20.17
2019-05-14T10:33:14.133Z,20.06
2019-05-14T10:35:39.243Z,20.07
2019-05-14T10:38:08.907Z,19.34
2019-05-14T10:40:38.618Z,18.66
2019-05-14T10:43:09.178Z,18.69
2019-05-14T10:45:38.614Z,18.45
2019-05-14T10:48:09.683Z,18.41
2019-05-14T10:50:55.763Z,18.44
2019-05-14T10:53:09.306Z,18.33
2019-05-14T10:55:38.738Z,18.47
2019-05-14T10:58:08.864Z,18.01
2019-05-14T11:00:41.925Z,17.86
2019-05-14T11:03:09.349Z,17.63
2019-05-14T11:05:41.562Z,17.81
2019-05-14T11:08:11.889Z,18.40
2019-05-14T11:10:42.147Z,18.05
2019-05-14T11:13:10.737Z,18.17
2019-05-14T11:15:39.766Z,17.35
2019-05-14T11:18:10.592Z,17.62
2019-05-14T11:20:42.090Z,17.47
2019-05-14T11:23:10.517Z,17.57
2019-05-14T11:25:39.550Z,17.77
2019-05-14T11:28:08.642Z,17.57
2019-05-14T11:30:39.247Z,18.18
2019-05-14T11:33:09.142Z,18.14
2019-05-14T11:35:39.434Z,17.33
2019-05-14T11:38:27.524Z,17.80
2019-05-14T11:40:39.338Z,17.78
2019-05-14T11:43:08.613Z,17.94
2019-05-14T11:45:39.244Z,18.56
2019-05-14T11:48:08.910Z,18.38
2019-05-14T11:50:37.970Z,18.71
2019-05-14T11:53:08.503Z,18.25
2019-05-14T11:55:38.821Z,18.11
2019-05-14T11:58:08.743Z,18.36
2019-05-14T12:00:38.684Z,18.54
2019-05-14T12:03:09.228Z,18.58
2019-05-14T12:05:38.931Z,18.99
2019-05-14T12:08:08.679Z,19.17
2019-05-14T12:10:38.741Z,18.36
2019-05-14T12:13:08.627Z,18.45
2019-05-14T12:15:38.896Z,18.45
2019-05-14T12:18:10.391Z,18.58
2019-05-14T12:20:39.538Z,18.77
2019-05-14T12:23:09.060Z,19.04
2019-05-14T12:25:38.194Z,19.44
2019-05-14T12:28:13.199Z,19.48
2019-05-14T12:30:39.503Z,19.69
2019-05-14T12:33:08.739Z,19.82
2019-05-14T12:35:40.218Z,18.65
2019-05-14T12:38:10.008Z,18.81
2019-05-14T12:40:39.187Z,18.70
2019-05-14T12:43:09.523Z,18.57
2019-05-14T12:45:39.418Z,18.31
2019-05-14T12:48:09.402Z,18.31
2019-05-14T12:50:39.259Z,18.81
2019-05-14T12:53:08.586Z,18.77
2019-05-14T12:55:40.037Z,18.98
2019-05-14T12:58:08.369Z,18.46
2019-05-14T13:00:39.398Z,18.10
2019-05-14T13:03:09.157Z,17.93
2019-05-14T13:05:38.763Z,18.22
2019-05-14T13:08:11.254Z,18.43
2019-05-14T13:10:38.718Z,18.50
2019-05-14T13:13:08.468Z,18.67
2019-05-14T13:15:39.259Z,18.66
2019-05-14T13:18:08.835Z,18.56
2019-05-14T13:20:38.861Z,18.51
2019-05-14T13:23:10.095Z,18.71
2019-05-14T13:25:39.719Z,18.79
2019-05-14T13:28:09.088Z,18.79
2019-05-14T13:30:38.529Z,18.68
2019-05-14T13:33:08.889Z,18.57
2019-05-14T13:35:39.075Z,18.30
2019-05-14T13:38:13.899Z,18.58
2019-05-14T13:40:39.329Z,18.64
2019-05-14T13:43:09.796Z,18.31
2019-05-14T13:45:39.410Z,18.29
2019-05-14T13:48:08.751Z,17.97
2019-05-14T13:50:40.065Z,17.68
2019-05-14T13:53:12.744Z,17.41
2019-05-14T13:55:45.600Z,17.51
2019-05-14T13:58:10.362Z,17.51
2019-05-14T14:00:39.602Z,17.70
2019-05-14T14:03:10.019Z,17.50
2019-05-14T14:05:39.707Z,17.65
2019-05-14T14:08:08.939Z,17.73
2019-05-14T14:10:44.866Z,17.55
2019-05-14T14:13:11.268Z,17.46
2019-05-14T14:15:39.897Z,17.82
2019-05-14T14:18:08.911Z,18.02
2019-05-14T14:20:39.432Z,17.87
2019-05-14T14:23:21.117Z,18.02
2019-05-14T14:25:39.587Z,18.34
2019-05-14T14:28:10.077Z,18.19
2019-05-14T14:30:39.623Z,18.24
2019-05-14T14:33:08.669Z,18.35
2019-05-14T14:35:38.846Z,18.01
2019-05-14T14:38:08.768Z,17.73
2019-05-14T14:40:39.528Z,17.79
2019-05-14T14:43:08.715Z,18.03
2019-05-14T14:45:44.700Z,18.14
2019-05-14T14:48:12.278Z,17.91
2019-05-14T14:50:39.467Z,18.01
2019-05-14T14:53:09.222Z,18.31
2019-05-14T14:55:39.948Z,18.22
2019-05-14T14:58:11.400Z,18.23
2019-05-14T15:00:40.190Z,17.99
2019-05-14T15:03:10.057Z,17.62
2019-05-14T15:05:39.253Z,17.67
2019-05-14T15:08:10.377Z,17.86
2019-05-14T15:10:39.669Z,17.90
2019-05-14T15:13:09.323Z,17.63
2019-05-14T15:15:39.363Z,17.67
2019-05-14T15:18:10.070Z,17.23
2019-05-14T15:20:39.440Z,17.41
2019-05-14T15:23:10.885Z,17.30
2019-05-14T15:25:39.913Z,17.24
2019-05-14T15:28:09.548Z,17.40
2019-05-14T15:30:39.658Z,17.15
2019-05-14T15:33:09.287Z,16.77
2019-05-14T15:35:38.500Z,17.12
2019-05-14T15:38:11.332Z,17.15
2019-05-14T15:40:40.043Z,17.03
2019-05-14T15:43:09.854Z,17.07
2019-05-14T15:45:39.105Z,17.15
2019-05-14T15:48:08.956Z,17.02
2019-05-14T15:50:38.839Z,17.04
2019-05-14T15:53:10.873Z,17.06
2019-05-14T15:55:39.915Z,17.18
2019-05-14T15:58:10.037Z,16.95
2019-05-14T16:00:39.095Z,16.74
2019-05-14T16:03:08.882Z,16.87
2019-05-14T16:05:39.411Z,17.00
2019-05-14T16:08:08.698Z,16.88
2019-05-14T16:10:39.809Z,16.54
2019-05-14T16:13:08.901Z,16.60
2019-05-14T16:15:38.954Z,16.53
2019-05-14T16:18:14.984Z,16.47
2019-05-14T16:20:39.449Z,16.44
2019-05-14T16:23:10.878Z,16.47
2019-05-14T16:25:39.318Z,16.62
2019-05-14T16:28:08.817Z,16.50
2019-05-14T16:30:39.693Z,16.37
2019-05-14T16:33:09.326Z,16.05
2019-05-14T16:35:39.301Z,16.04
2019-05-14T16:38:08.529Z,16.06
2019-05-14T16:40:39.567Z,16.19
2019-05-14T16:43:08.271Z,16.10
2019-05-14T16:45:39.608Z,16.02
2019-05-14T16:48:10.953Z,15.93
2019-05-14T16:50:39.134Z,15.59
2019-05-14T16:53:11.617Z,15.58
2019-05-14T16:55:38.965Z,15.47
2019-05-14T16:58:08.959Z,15.28
2019-05-14T17:00:38.108Z,15.33
2019-05-14T17:03:08.294Z,15.07
2019-05-14T17:05:38.211Z,15.03
2019-05-14T17:08:09.896Z,15.08
2019-05-14T17:10:38.746Z,15.01
2019-05-14T17:13:09.092Z,14.92
2019-05-14T17:15:39.366Z,14.86
2019-05-14T17:18:08.969Z,14.71
2019-05-14T17:20:39.427Z,14.80
2019-05-14T17:23:09.135Z,14.77
2019-05-14T17:25:39.159Z,14.79
2019-05-14T17:28:08.566Z,14.69
2019-05-14T17:30:38.606Z,14.58
2019-05-14T17:33:09.653Z,14.57
2019-05-14T17:35:39.106Z,14.57
2019-05-14T17:38:09.239Z,14.49
2019-05-14T17:40:39.699Z,14.37
2019-05-14T17:43:09.036Z,14.25
2019-05-14T17:45:39.106Z,14.20
2019-05-14T17:48:08.289Z,13.93
2019-05-14T17:50:38.425Z,13.91
2019-05-14T17:53:09.749Z,13.94
2019-05-14T17:55:46.658Z,13.78
2019-05-14T17:58:13.063Z,13.83
2019-05-14T18:00:41.472Z,13.64
2019-05-14T18:03:10.525Z,13.50
2019-05-14T18:05:39.944Z,13.54
2019-05-14T18:08:09.358Z,13.61
2019-05-14T18:10:39.129Z,13.56
2019-05-14T18:13:09.431Z,13.47
2019-05-14T18:15:39.464Z,13.36
2019-05-14T18:18:08.959Z,13.30
2019-05-14T18:20:39.637Z,13.13
2019-05-14T18:23:11.747Z,13.13
2019-05-14T18:25:39.566Z,13.09
2019-05-14T18:28:09.419Z,13.03
2019-05-14T18:30:38.838Z,12.87
2019-05-14T18:33:08.091Z,12.87
2019-05-14T18:35:44.256Z,12.81
2019-05-14T18:38:08.379Z,12.70
2019-05-14T18:40:39.605Z,12.67
2019-05-14T18:43:08.667Z,12.62
2019-05-14T18:45:38.860Z,12.60
2019-05-14T18:48:08.521Z,12.49
2019-05-14T18:50:37.602Z,12.45
2019-05-14T18:53:09.073Z,12.35
2019-05-14T18:55:38.611Z,12.32
2019-05-14T18:58:08.549Z,12.25
2019-05-14T19:00:38.859Z,12.16
2019-05-14T19:03:08.524Z,12.09
2019-05-14T19:05:38.266Z,11.99
2019-05-14T19:08:07.447Z,11.90
2019-05-14T19:10:39.126Z,11.79
2019-05-14T19:13:08.865Z,11.66
2019-05-14T19:15:38.816Z,11.58
2019-05-14T19:18:09.122Z,11.41
2019-05-14T19:20:39.156Z,11.28
2019-05-14T19:23:08.461Z,11.13
2019-05-14T19:25:38.919Z,10.99
2019-05-14T19:28:08.966Z,10.91
2019-05-14T19:30:38.354Z,10.80
2019-05-14T19:33:08.539Z,10.70
2019-05-14T19:35:39.472Z,10.61
2019-05-14T19:38:08.935Z,10.50
2019-05-14T19:40:39.189Z,10.40
2019-05-14T19:43:09.464Z,10.30
2019-05-14T19:45:38.999Z,10.17
2019-05-14T19:48:08.209Z,10.07
2019-05-14T19:50:38.789Z,9.94
2019-05-14T19:53:09.032Z,9.82
2019-05-14T19:55:39.109Z,9.71
2019-05-14T19:58:08.765Z,9.59
2019-05-14T20:00:38.342Z,9.46
2019-05-14T20:03:08.834Z,9.35
2019-05-14T20:05:39.376Z,9.25
2019-05-14T20:08:08.801Z,9.16
2019-05-14T20:10:39.285Z,9.09
2019-05-14T20:13:08.768Z,9.01
2019-05-14T20:15:38.966Z,8.94
2019-05-14T20:18:08.964Z,8.86
2019-05-14T20:20:38.358Z,8.81
2019-05-14T20:23:07.736Z,8.78
2019-05-14T20:25:38.753Z,8.73
2019-05-14T20:28:08.211Z,8.64
2019-05-14T20:30:38.655Z,8.45
2019-05-14T20:33:08.569Z,8.45
2019-05-14T20:35:37.787Z,8.44
2019-05-14T20:38:09.060Z,8.34
2019-05-14T20:40:38.180Z,8.28
2019-05-14T20:43:10.324Z,8.22
2019-05-14T20:45:39.284Z,8.17
2019-05-14T20:48:08.918Z,8.10
2019-05-14T20:50:38.487Z,8.00
2019-05-14T20:53:08.451Z,7.91
2019-05-14T20:55:38.897Z,7.86
2019-05-14T20:58:08.350Z,7.76
2019-05-14T21:00:41.207Z,7.72
2019-05-14T21:03:09.032Z,7.69
2019-05-14T21:05:38.847Z,7.70
2019-05-14T21:08:13.195Z,7.63
2019-05-14T21:10:39.469Z,7.58
2019-05-14T21:13:08.873Z,7.50
2019-05-14T21:15:39.194Z,7.44
2019-05-14T21:18:08.542Z,7.35
2019-05-14T21:20:39.330Z,7.28
2019-05-14T21:23:08.948Z,7.19
2019-05-14T21:25:38.713Z,7.15
2019-05-14T21:28:09.337Z,7.08
2019-05-14T21:30:39.067Z,7.02
2019-05-14T21:33:08.543Z,6.93
2019-05-14T21:35:39.018Z,6.89
2019-05-14T21:38:09.257Z,6.87
2019-05-14T21:40:38.995Z,6.86
2019-05-14T21:43:11.092Z,6.86
2019-05-14T21:45:39.018Z,6.79
2019-05-14T21:48:08.772Z,6.81
2019-05-14T21:50:38.701Z,6.80
2019-05-14T21:53:08.946Z,6.82
2019-05-14T21:55:39.048Z,6.83
2019-05-14T21:58:11.809Z,6.80
2019-05-14T22:00:43.504Z,6.78
2019-05-14T22:03:12.543Z,6.74
2019-05-14T22:05:41.653Z,6.68
2019-05-14T22:08:10.627Z,6.59
2019-05-14T22:10:40.214Z,6.51
2019-05-14T22:13:09.324Z,6.41
2019-05-14T22:15:39.271Z,6.38
2019-05-14T22:18:16.919Z,6.34
2019-05-14T22:20:40.437Z,6.29
2019-05-14T22:23:09.412Z,6.23
2019-05-14T22:25:39.719Z,6.20
2019-05-14T22:28:15.376Z,6.14
2019-05-14T22:30:40.221Z,6.08
2019-05-14T22:33:09.244Z,6.06
2019-05-14T22:35:39.898Z,6.04
2019-05-14T22:38:09.342Z,6.04
2019-05-14T22:40:39.387Z,6.01
2019-05-14T22:43:09.535Z,5.97
2019-05-14T22:45:39.704Z,5.95
2019-05-14T22:48:09.735Z,5.92
2019-05-14T22:50:41.378Z,5.90
2019-05-14T22:53:10.319Z,5.80
2019-05-14T22:55:39.440Z,5.75
2019-05-14T22:58:24.546Z,5.73
2019-05-14T23:00:46.908Z,5.72
2019-05-14T23:03:11.033Z,5.70
2019-05-14T23:05:40.335Z,5.65
2019-05-14T23:08:09.577Z,5.58
2019-05-14T23:10:39.543Z,5.53
2019-05-14T23:13:09.601Z,5.44
2019-05-14T23:15:39.932Z,5.30
2019-05-14T23:18:09.707Z,5.23
2019-05-14T23:20:39.554Z,5.19
2019-05-14T23:23:09.249Z,5.14
2019-05-14T23:25:38.913Z,5.12
2019-05-14T23:28:08.601Z,5.15
2019-05-14T23:30:38.874Z,5.14
2019-05-14T23:33:08.027Z,5.14
2019-05-14T23:35:39.037Z,5.11
2019-05-14T23:38:08.965Z,5.06
2019-05-14T23:40:38.680Z,4.99
2019-05-14T23:43:08.329Z,4.96
2019-05-14T23:45:38.154Z,4.97
2019-05-14T23:48:09.507Z,4.97
2019-05-14T23:50:38.081Z,4.99
2019-05-14T23:53:09.303Z,5.00
2019-05-14T23:55:38.696Z,4.97
2019-05-14T23:58:08.322Z,4.98
